Time;durP1;ratioP1;P1;durP2;ratioP2;P2;SDS_P1;SDS_P2;PMS_P1;PMS_P2;Temp;Humidity;BMP_temperature;BMP_pressure;BME280_temperature;BME280_humidity;BME280_pressure;Samples;Min_cycle;Max_cycle;Signal;HPM_P1;HPM_P2
2022/06/26 00:01:00;;;;;;;2.57;2.37;;;20.70;99.90;;;;;;5046959;28;20228;-68
2022/06/26 00:03:29;;;;;;;1.77;1.67;;;20.80;99.90;;;;;;5046594;28;20651;-70
2022/06/26 00:05:55;;;;;;;2.53;2.33;;;20.90;99.90;;;;;;5046537;28;20420;-69
2022/06/26 00:08:21;;;;;;;2.70;2.20;;;20.90;99.90;;;;;;5046361;28;21017;-69
2022/06/26 00:10:47;;;;;;;4.60;1.90;;;21.00;99.90;;;;;;5046840;28;20413;-68
2022/06/26 00:13:14;;;;;;;2.30;2.10;;;21.00;99.90;;;;;;5046258;28;20483;-68
2022/06/26 00:15:40;;;;;;;1.97;1.83;;;21.00;99.90;;;;;;5046759;28;20408;-70
2022/06/26 00:18:06;;;;;;;2.60;2.40;;;21.10;99.90;;;;;;5047016;28;20405;-69
2022/06/26 00:20:32;;;;;;;2.03;1.93;;;21.10;99.90;;;;;;5046569;28;20503;-69
2022/06/26 00:22:58;;;;;;;2.40;2.20;;;21.10;99.90;;;;;;5046581;28;20174;-70
2022/06/26 00:25:23;;;;;;;5.10;3.40;;;21.00;99.90;;;;;;5046406;28;21267;-70
2022/06/26 00:27:49;;;;;;;2.40;2.20;;;21.00;99.90;;;;;;5046210;28;20179;-69
2022/06/26 00:30:14;;;;;;;3.77;2.17;;;20.90;99.90;;;;;;5046274;28;20752;-69
2022/06/26 00:32:40;;;;;;;2.13;1.70;;;20.80;99.90;;;;;;5046488;28;20197;-70
2022/06/26 00:35:07;;;;;;;2.00;1.80;;;20.80;99.90;;;;;;5044944;28;20194;-70
2022/06/26 00:37:33;;;;;;;3.40;2.80;;;20.70;99.90;;;;;;5045922;28;20183;-71
2022/06/26 00:39:58;;;;;;;2.60;2.40;;;20.80;99.90;;;;;;5045844;28;20495;-70
2022/06/26 00:42:24;;;;;;;3.70;2.80;;;20.90;99.90;;;;;;5045558;28;21044;-70
2022/06/26 00:44:52;;;;;;;2.43;2.23;;;21.00;99.90;;;;;;5046074;28;20213;-69
2022/06/26 00:47:18;;;;;;;2.20;1.73;;;21.10;99.90;;;;;;5045909;28;20277;-69
2022/06/26 00:49:44;;;;;;;2.13;1.93;;;21.10;99.90;;;;;;5045785;28;20460;-69
2022/06/26 00:52:11;;;;;;;2.63;1.97;;;21.20;99.90;;;;;;5046005;28;20428;-69
2022/06/26 00:54:37;;;;;;;1.87;1.67;;;21.40;99.90;;;;;;5045660;28;20196;-69
2022/06/26 00:57:03;;;;;;;2.03;1.70;;;21.50;99.90;;;;;;5045578;28;20442;-68
2022/06/26 00:59:28;;;;;;;2.10;1.70;;;21.70;99.90;;;;;;5045258;28;21022;-68
2022/06/26 01:01:54;;;;;;;1.97;1.63;;;21.90;99.90;;;;;;5045694;28;20538;-70
2022/06/26 01:04:20;;;;;;;2.43;1.83;;;21.90;99.90;;;;;;5045650;28;21262;-70
2022/06/26 01:06:47;;;;;;;2.10;2.00;;;22.00;99.90;;;;;;5045011;28;20185;-70
2022/06/26 01:09:13;;;;;;;1.90;1.80;;;22.00;99.90;;;;;;5045860;28;20801;-70
2022/06/26 01:11:39;;;;;;;1.80;1.70;;;22.10;99.90;;;;;;5045245;28;20511;-69
2022/06/26 01:14:05;;;;;;;5.73;2.57;;;22.30;99.90;;;;;;5048002;28;20257;-69
2022/06/26 01:16:31;;;;;;;1.90;1.80;;;22.40;99.90;;;;;;5036789;28;20484;-69
2022/06/26 01:18:58;;;;;;;2.20;2.00;;;22.60;99.90;;;;;;5045866;28;20594;-70
2022/06/26 01:21:25;;;;;;;3.03;1.73;;;22.50;99.90;;;;;;5045943;28;20269;-70
2022/06/26 01:23:52;;;;;;;2.03;1.93;;;22.40;99.90;;;;;;5045023;28;20459;-69
2022/06/26 01:26:18;;;;;;;2.10;1.90;;;22.40;99.90;;;;;;5044964;28;20428;-70
2022/06/26 01:28:44;;;;;;;1.80;1.70;;;22.10;99.90;;;;;;5045782;28;20598;-70
2022/06/26 01:31:10;;;;;;;2.20;2.00;;;22.20;99.90;;;;;;5044703;28;20500;-70
2022/06/26 01:33:36;;;;;;;2.13;1.93;;;22.50;99.90;;;;;;5045261;28;20175;-70
2022/06/26 01:36:03;;;;;;;1.53;1.43;;;22.40;99.90;;;;;;5044859;28;20175;-69
2022/06/26 01:38:28;;;;;;;2.00;1.80;;;22.50;99.90;;;;;;5044921;28;20607;-70
2022/06/26 01:40:55;;;;;;;3.83;2.27;;;22.50;99.90;;;;;;5044901;28;20540;-69
2022/06/26 01:43:27;;;;;;;1.57;1.47;;;22.30;99.90;;;;;;5044610;28;20182;-69
2022/06/26 01:45:54;;;;;;;5.37;1.90;;;22.20;99.90;;;;;;5026970;28;20586;-69
2022/06/26 01:48:21;;;;;;;1.90;1.63;;;22.20;99.90;;;;;;5044520;28;20417;-69
2022/06/26 01:50:47;;;;;;;3.27;1.97;;;22.30;99.90;;;;;;5044753;28;20492;-70
2022/06/26 01:53:14;;;;;;;2.23;1.93;;;22.30;99.90;;;;;;5044669;28;20417;-68
2022/06/26 01:55:41;;;;;;;2.37;2.00;;;22.20;99.90;;;;;;5044945;28;20443;-69
2022/06/26 01:58:07;;;;;;;2.03;1.83;;;22.10;99.90;;;;;;5044309;28;20397;-69
2022/06/26 02:00:35;;;;;;;2.20;2.00;;;22.30;99.90;;;;;;5044351;28;20461;-69
2022/06/26 02:03:02;;;;;;;2.27;1.97;;;22.10;99.90;;;;;;5026523;28;20429;-69
2022/06/26 02:05:28;;;;;;;3.83;2.47;;;22.20;99.90;;;;;;5044188;28;20528;-70
2022/06/26 02:07:54;;;;;;;2.70;2.10;;;22.20;99.90;;;;;;5044464;28;20425;-69
2022/06/26 02:15:51;;;;;;;2.27;2.10;;;22.40;99.90;;;;;;5044414;28;20470;-68
2022/06/26 02:18:17;;;;;;;2.50;2.03;;;22.40;99.90;;;;;;5044263;28;20509;-68
2022/06/26 02:20:43;;;;;;;2.10;2.00;;;22.40;99.90;;;;;;5045349;28;20401;-69
2022/06/26 02:23:10;;;;;;;1.90;1.80;;;22.30;99.90;;;;;;5044214;28;20474;-69
2022/06/26 02:25:36;;;;;;;1.90;1.80;;;22.20;99.90;;;;;;5044605;28;20479;-69
2022/06/26 02:28:02;;;;;;;1.90;1.80;;;22.20;99.90;;;;;;5043801;28;20410;-69
2022/06/26 02:30:27;;;;;;;2.93;1.90;;;22.00;99.90;;;;;;5043955;28;20562;-68
2022/06/26 02:32:56;;;;;;;2.27;1.87;;;22.00;99.90;;;;;;5043846;28;20504;-69
2022/06/26 02:35:21;;;;;;;2.13;2.03;;;21.90;99.90;;;;;;5044142;28;20247;-70
2022/06/26 02:37:47;;;;;;;2.37;2.17;;;21.90;99.90;;;;;;5025980;28;20945;-70
2022/06/26 02:40:13;;;;;;;2.70;2.07;;;21.80;99.90;;;;;;5044001;28;20206;-68
2022/06/26 02:42:38;;;;;;;2.30;1.47;;;21.70;99.90;;;;;;5043402;28;20764;-68
2022/06/26 02:45:05;;;;;;;3.93;1.90;;;21.70;99.90;;;;;;5043530;28;20183;-68
2022/06/26 02:47:31;;;;;;;2.20;1.93;;;21.70;99.90;;;;;;5043702;28;20193;-69
2022/06/26 02:49:57;;;;;;;3.53;2.20;;;21.40;99.90;;;;;;5043311;28;20452;-68
2022/06/26 02:52:22;;;;;;;3.10;2.57;;;21.30;99.90;;;;;;5043470;28;20184;-68
2022/06/26 02:54:48;;;;;;;1.80;1.70;;;21.40;99.90;;;;;;5043435;28;20205;-68
2022/06/26 02:57:14;;;;;;;2.80;2.00;;;21.50;99.90;;;;;;5043128;28;20190;-69
2022/06/26 02:59:39;;;;;;;3.23;2.30;;;21.40;99.90;;;;;;5043019;28;20688;-69
2022/06/26 03:02:05;;;;;;;2.10;1.90;;;21.40;99.90;;;;;;5043505;28;20171;-68
2022/06/26 03:04:30;;;;;;;3.90;1.77;;;21.40;99.90;;;;;;5043460;28;20542;-68
2022/06/26 03:06:57;;;;;;;2.50;2.30;;;21.30;99.90;;;;;;5043390;28;20179;-67
2022/06/26 03:09:22;;;;;;;4.37;2.00;;;21.30;99.90;;;;;;5043565;28;20281;-68
2022/06/26 03:11:48;;;;;;;5.00;2.00;;;21.20;99.90;;;;;;5042818;28;20884;-68
2022/06/26 03:14:13;;;;;;;1.97;1.83;;;21.10;99.90;;;;;;5043563;28;20512;-69
2022/06/26 03:16:39;;;;;;;2.27;2.07;;;21.20;99.90;;;;;;5043151;28;20178;-70
2022/06/26 03:19:05;;;;;;;1.93;1.83;;;20.90;99.90;;;;;;5043224;28;20698;-69
2022/06/26 03:21:30;;;;;;;2.17;1.90;;;21.00;99.90;;;;;;5042905;28;20254;-68
2022/06/26 03:24:02;;;;;;;2.80;2.20;;;21.20;99.90;;;;;;5043179;28;20206;-69
2022/06/26 03:26:32;;;;;;;2.80;1.60;;;20.80;99.90;;;;;;5042987;28;20171;-69
2022/06/26 03:28:59;;;;;;;1.90;1.80;;;20.90;99.90;;;;;;5043922;28;20995;-69
2022/06/26 03:31:25;;;;;;;2.40;1.70;;;21.00;99.90;;;;;;5047275;28;20426;-69
2022/06/26 03:33:51;;;;;;;2.27;2.07;;;21.10;99.90;;;;;;5047066;28;20413;-68
2022/06/26 03:36:17;;;;;;;2.60;2.40;;;21.10;99.90;;;;;;5046734;28;20503;-68
2022/06/26 03:38:43;;;;;;;2.17;2.07;;;21.00;99.90;;;;;;5046789;28;20623;-69
2022/06/26 03:41:09;;;;;;;2.27;2.07;;;21.00;99.90;;;;;;5029205;28;20504;-70
2022/06/26 03:43:35;;;;;;;2.00;1.90;;;20.80;99.90;;;;;;5028972;28;20424;-69
2022/06/26 03:46:01;;;;;;;2.30;1.70;;;20.70;99.90;;;;;;5046992;28;20616;-69
2022/06/26 03:48:27;;;;;;;1.77;1.67;;;20.60;99.90;;;;;;5046966;28;20206;-69
2022/06/26 03:50:53;;;;;;;2.03;1.93;;;20.70;99.90;;;;;;5046744;28;20175;-69
2022/06/26 03:53:19;;;;;;;2.20;2.00;;;20.70;99.90;;;;;;5029094;28;20814;-70
2022/06/26 03:55:45;;;;;;;2.30;2.10;;;20.70;99.90;;;;;;5047020;28;20279;-69
2022/06/26 03:58:10;;;;;;;2.50;1.97;;;20.80;99.90;;;;;;5046571;28;20787;-69
2022/06/26 04:00:36;;;;;;;1.53;1.20;;;20.80;99.90;;;;;;5046303;28;20194;-68
2022/06/26 04:03:04;;;;;;;1.70;1.60;;;20.70;99.90;;;;;;5046928;28;20197;-69
2022/06/26 04:05:30;;;;;;;3.70;2.07;;;20.70;99.90;;;;;;5046863;28;20475;-69
2022/06/26 04:07:55;;;;;;;2.73;1.90;;;20.60;99.90;;;;;;5046548;28;20752;-69
2022/06/26 04:10:21;;;;;;;1.70;1.60;;;20.70;99.90;;;;;;5046809;28;20435;-69
2022/06/26 04:12:47;;;;;;;1.90;1.80;;;20.90;99.90;;;;;;5046369;28;20639;-71
2022/06/26 04:15:12;;;;;;;2.23;2.03;;;21.00;99.90;;;;;;5046729;28;20421;-69
2022/06/26 04:17:38;;;;;;;1.87;1.60;;;20.90;99.90;;;;;;5046594;28;20236;-69
2022/06/26 04:20:05;;;;;;;1.87;1.73;;;20.90;99.90;;;;;;5046540;28;20203;-68
2022/06/26 04:22:30;;;;;;;2.67;1.63;;;20.90;99.90;;;;;;5046534;28;20196;-69
2022/06/26 04:24:56;;;;;;;1.60;1.50;;;20.80;99.90;;;;;;5046350;28;20420;-69
2022/06/26 04:27:21;;;;;;;2.47;1.70;;;20.70;99.90;;;;;;5046466;28;20186;-68
2022/06/26 04:29:47;;;;;;;3.53;1.57;;;20.70;99.90;;;;;;5046228;28;20210;-68
2022/06/26 04:32:12;;;;;;;1.70;1.60;;;20.80;99.90;;;;;;5046490;28;20261;-68
2022/06/26 04:34:38;;;;;;;4.00;1.77;;;20.90;99.90;;;;;;5046553;28;20185;-69
2022/06/26 04:37:04;;;;;;;1.50;1.40;;;20.90;99.90;;;;;;5046195;28;20186;-69
2022/06/26 04:39:30;;;;;;;1.60;1.43;;;21.00;99.90;;;;;;5027668;28;20203;-69
2022/06/26 04:41:56;;;;;;;1.63;1.53;;;21.00;99.90;;;;;;5045780;28;20415;-69
2022/06/26 04:44:22;;;;;;;1.60;1.50;;;21.00;99.90;;;;;;5046268;28;20420;-69
2022/06/26 04:46:48;;;;;;;1.70;1.60;;;21.00;99.90;;;;;;5046185;28;20253;-70
2022/06/26 04:49:14;;;;;;;1.83;1.73;;;21.00;99.90;;;;;;5046201;28;20255;-70
2022/06/26 04:51:39;;;;;;;1.93;1.73;;;21.00;99.90;;;;;;5027846;28;20508;-69
2022/06/26 04:54:07;;;;;;;1.60;1.30;;;21.00;99.90;;;;;;5046638;28;20428;-69
2022/06/26 04:56:33;;;;;;;1.40;1.30;;;21.00;99.90;;;;;;5045915;28;20175;-72
2022/06/26 04:58:59;;;;;;;1.43;1.33;;;21.10;99.90;;;;;;5045774;28;20452;-69
2022/06/26 05:01:26;;;;;;;1.40;1.30;;;21.10;99.90;;;;;;5046172;28;20417;-69
2022/06/26 05:03:52;;;;;;;1.33;1.23;;;21.30;99.90;;;;;;5046290;28;20178;-70
2022/06/26 05:06:18;;;;;;;1.40;1.20;;;21.30;99.90;;;;;;5045661;28;20412;-70
2022/06/26 05:08:44;;;;;;;1.40;1.00;;;21.20;99.90;;;;;;5045749;28;20437;-69
2022/06/26 05:11:10;;;;;;;1.30;1.20;;;21.30;99.90;;;;;;5045968;28;20201;-69
2022/06/26 05:13:36;;;;;;;1.70;0.90;;;21.30;99.90;;;;;;5045305;28;20413;-70
2022/06/26 05:16:02;;;;;;;1.80;1.30;;;21.40;99.90;;;;;;5045733;28;21514;-70
2022/06/26 05:18:27;;;;;;;1.77;1.47;;;21.50;99.90;;;;;;5045683;28;20441;-70
2022/06/26 05:20:53;;;;;;;1.27;1.10;;;21.60;99.90;;;;;;5045246;28;20182;-69
2022/06/26 05:23:19;;;;;;;1.50;1.40;;;21.70;99.90;;;;;;5045560;28;20182;-69
2022/06/26 05:25:45;;;;;;;1.27;1.10;;;21.80;99.90;;;;;;5045443;28;20782;-69
2022/06/26 05:28:11;;;;;;;2.20;1.17;;;22.00;99.90;;;;;;5045722;28;20659;-69
2022/06/26 05:30:37;;;;;;;4.50;1.70;;;21.90;99.90;;;;;;5045967;28;20191;-69
2022/06/26 05:33:03;;;;;;;1.57;0.97;;;21.80;99.90;;;;;;5044039;28;20518;-70
2022/06/26 05:35:29;;;;;;;1.30;1.20;;;21.80;99.90;;;;;;5046372;28;20417;-69
2022/06/26 05:37:55;;;;;;;1.40;1.30;;;21.90;99.90;;;;;;5045723;28;20421;-70
2022/06/26 05:40:21;;;;;;;1.83;1.27;;;22.10;99.90;;;;;;5045748;28;20465;-69
2022/06/26 05:42:46;;;;;;;1.47;1.37;;;22.20;99.90;;;;;;5046495;28;20409;-69
2022/06/26 05:45:12;;;;;;;3.27;2.10;;;22.20;99.90;;;;;;5046121;28;20628;-69
2022/06/26 05:47:38;;;;;;;4.10;2.00;;;22.30;99.90;;;;;;5045978;28;20273;-71
2022/06/26 05:50:05;;;;;;;2.10;1.90;;;22.40;99.90;;;;;;5046335;28;20304;-69
2022/06/26 05:52:30;;;;;;;3.03;1.93;;;22.50;99.90;;;;;;5045005;28;20630;-69
2022/06/26 05:54:56;;;;;;;3.10;2.20;;;22.40;99.90;;;;;;5045298;28;20445;-70
2022/06/26 05:57:22;;;;;;;2.00;1.60;;;22.40;99.90;;;;;;5045114;28;20179;-70
2022/06/26 05:59:48;;;;;;;1.60;1.50;;;22.40;99.90;;;;;;5044866;28;20229;-68
2022/06/26 06:02:13;;;;;;;5.63;1.60;;;22.20;99.90;;;;;;5044232;28;20198;-71
2022/06/26 06:04:39;;;;;;;1.60;1.50;;;22.20;99.90;;;;;;5044460;28;20266;-69
2022/06/26 06:07:05;;;;;;;1.83;1.57;;;22.20;99.90;;;;;;5044398;28;20705;-69
2022/06/26 06:09:32;;;;;;;2.83;2.07;;;22.20;99.90;;;;;;5044307;28;20282;-70
2022/06/26 06:11:57;;;;;;;2.77;2.40;;;22.20;99.90;;;;;;5043845;28;20431;-72
2022/06/26 06:14:23;;;;;;;4.80;3.60;;;22.30;99.90;;;;;;5044465;28;20531;-69
2022/06/26 06:16:49;;;;;;;2.70;2.30;;;22.40;99.90;;;;;;5026357;28;20186;-69
2022/06/26 06:19:14;;;;;;;2.17;1.90;;;22.50;99.90;;;;;;5044628;28;20686;-69
2022/06/26 06:21:40;;;;;;;1.60;1.50;;;22.60;99.90;;;;;;5043929;28;20178;-69
2022/06/26 06:24:06;;;;;;;2.27;1.60;;;22.60;99.90;;;;;;5044553;28;20214;-68
2022/06/26 06:26:32;;;;;;;2.13;1.93;;;22.60;99.90;;;;;;5026588;28;20282;-69
2022/06/26 06:28:57;;;;;;;1.40;1.30;;;22.70;99.90;;;;;;5044442;28;20206;-69
2022/06/26 06:31:23;;;;;;;1.50;1.40;;;22.90;99.90;;;;;;5043981;28;20210;-69
2022/06/26 06:33:48;;;;;;;2.20;1.40;;;22.90;99.90;;;;;;5026184;28;20186;-69
2022/06/26 06:36:15;;;;;;;1.50;1.40;;;23.00;99.90;;;;;;5025543;28;20189;-69
2022/06/26 06:38:41;;;;;;;1.77;1.67;;;23.00;99.90;;;;;;5043755;28;20233;-70
2022/06/26 06:41:07;;;;;;;3.50;1.53;;;23.10;99.90;;;;;;5043548;28;20575;-68
2022/06/26 06:43:33;;;;;;;2.57;1.70;;;23.10;99.90;;;;;;5043331;28;20182;-69
2022/06/26 06:45:58;;;;;;;2.37;1.97;;;23.00;99.90;;;;;;5044028;28;20800;-68
2022/06/26 06:48:24;;;;;;;1.87;1.77;;;22.70;99.90;;;;;;5043233;28;20233;-69
2022/06/26 06:50:51;;;;;;;2.03;1.67;;;22.80;99.90;;;;;;5043872;28;20170;-69
2022/06/26 06:53:18;;;;;;;1.60;1.43;;;23.00;99.90;;;;;;5043288;28;20909;-69
2022/06/26 06:55:43;;;;;;;1.50;1.40;;;23.20;99.90;;;;;;5043464;28;20417;-70
2022/06/26 06:58:09;;;;;;;1.70;1.60;;;23.40;99.90;;;;;;5043583;28;20413;-68
2022/06/26 07:00:35;;;;;;;3.03;1.80;;;23.50;99.90;;;;;;5043449;28;20240;-69
2022/06/26 07:03:02;;;;;;;3.00;2.07;;;23.50;99.90;;;;;;5043445;28;20274;-68
2022/06/26 07:05:28;;;;;;;1.57;1.47;;;23.30;99.90;;;;;;5043553;28;20429;-69
2022/06/26 07:07:54;;;;;;;1.80;1.70;;;23.20;99.90;;;;;;5025147;28;20460;-69
2022/06/26 07:10:20;;;;;;;2.90;1.63;;;23.40;99.90;;;;;;5043182;28;20479;-69
2022/06/26 07:12:59;;;;;;;1.80;1.70;;;23.30;99.90;;;;;;5043148;28;20217;-68
2022/06/26 07:15:25;;;;;;;1.83;1.73;;;23.60;99.90;;;;;;5025407;28;20230;-70
2022/06/26 07:17:50;;;;;;;2.10;1.83;;;23.70;99.90;;;;;;5043622;28;20428;-69
2022/06/26 07:20:16;;;;;;;1.80;1.70;;;23.60;99.90;;;;;;5043311;28;20710;-70
2022/06/26 07:22:43;;;;;;;1.70;1.60;;;23.00;99.90;;;;;;5043057;28;20183;-70
2022/06/26 07:25:08;;;;;;;1.73;1.63;;;22.70;99.90;;;;;;5043083;28;20264;-69
2022/06/26 07:27:35;;;;;;;2.27;1.27;;;22.60;99.90;;;;;;5043358;28;20417;-69
2022/06/26 07:30:00;;;;;;;2.60;1.63;;;22.80;99.90;;;;;;5043095;28;20206;-70
2022/06/26 07:32:27;;;;;;;1.93;1.57;;;22.90;99.90;;;;;;5043316;28;20860;-71
2022/06/26 07:34:54;;;;;;;1.87;1.77;;;23.20;99.90;;;;;;5043837;28;20769;-69
2022/06/26 07:37:20;;;;;;;2.00;1.80;;;23.40;99.90;;;;;;5043211;28;20428;-70
2022/06/26 07:39:46;;;;;;;2.10;1.90;;;23.50;99.90;;;;;;5043552;28;20457;-70
2022/06/26 07:42:12;;;;;;;1.70;1.60;;;23.70;99.90;;;;;;5043327;28;20971;-69
2022/06/26 07:44:38;;;;;;;2.50;2.30;;;23.60;99.90;;;;;;5043393;28;20519;-70
2022/06/26 07:47:03;;;;;;;1.90;1.70;;;23.50;99.90;;;;;;5043639;28;20497;-70
2022/06/26 07:49:29;;;;;;;2.70;1.67;;;23.50;99.90;;;;;;5043138;28;20634;-70
2022/06/26 07:51:55;;;;;;;1.57;1.43;;;23.60;99.90;;;;;;5043275;28;20214;-68
2022/06/26 07:54:21;;;;;;;2.57;1.60;;;23.70;99.90;;;;;;5025217;28;20355;-69
2022/06/26 07:56:49;;;;;;;1.53;1.43;;;23.40;99.90;;;;;;5043482;28;20654;-70
2022/06/26 07:59:14;;;;;;;2.40;2.10;;;23.50;99.90;;;;;;5025192;28;20619;-69
2022/06/26 08:01:41;;;;;;;2.10;1.80;;;23.60;99.90;;;;;;5042952;28;20428;-69
2022/06/26 08:04:07;;;;;;;1.57;1.47;;;23.60;99.90;;;;;;5043251;28;20214;-69
2022/06/26 08:06:33;;;;;;;1.83;1.70;;;23.70;99.90;;;;;;5042595;28;20921;-70
2022/06/26 08:08:59;;;;;;;2.50;1.40;;;23.90;99.90;;;;;;5043036;28;20202;-69
2022/06/26 08:11:25;;;;;;;1.83;1.60;;;24.00;99.90;;;;;;5042515;28;20270;-69
2022/06/26 08:13:50;;;;;;;1.43;1.33;;;24.20;99.90;;;;;;5042933;28;20186;-68
2022/06/26 08:16:16;;;;;;;1.67;1.23;;;23.90;99.90;;;;;;5047029;28;20627;-68
2022/06/26 08:18:42;;;;;;;1.53;1.30;;;23.80;99.90;;;;;;5046654;28;20540;-68
2022/06/26 08:23:52;;;;;;;1.67;1.50;;;23.70;99.90;;;;;;5027318;28;20189;-73
2022/06/26 08:26:18;;;;;;;1.60;1.43;;;23.80;99.90;;;;;;5026325;28;20453;-72
2022/06/26 08:28:45;;;;;;;1.83;1.57;;;24.10;99.90;;;;;;5026572;28;20925;-72
2022/06/26 08:31:10;;;;;;;1.73;1.63;;;24.00;99.90;;;;;;5026918;28;20206;-71
2022/06/26 08:33:36;;;;;;;1.70;1.60;;;24.00;99.90;;;;;;5026653;28;20410;-72
2022/06/26 08:36:03;;;;;;;2.50;1.40;;;23.80;99.90;;;;;;5026819;28;20179;-70
2022/06/26 08:38:29;;;;;;;2.03;1.30;;;23.80;99.90;;;;;;5026440;28;20229;-70
2022/06/26 08:41:00;;;;;;;1.97;1.40;;;23.90;99.90;;;;;;5026632;28;20950;-71
2022/06/26 08:43:26;;;;;;;1.83;1.67;;;24.20;99.90;;;;;;5026464;28;20171;-72
2022/06/26 08:45:53;;;;;;;1.40;1.30;;;24.50;99.90;;;;;;5026620;28;20410;-71
2022/06/26 08:48:25;;;;;;;1.60;1.50;;;24.40;99.90;;;;;;5026394;28;20989;-73
2022/06/26 08:50:51;;;;;;;1.90;1.60;;;24.40;99.90;;;;;;5026352;28;20418;-73
2022/06/26 08:53:18;;;;;;;1.63;1.53;;;24.50;99.90;;;;;;5025691;28;20460;-72
2022/06/26 08:55:44;;;;;;;2.13;1.50;;;24.40;99.90;;;;;;5026272;28;20217;-72
2022/06/26 08:58:10;;;;;;;1.43;1.33;;;24.40;99.90;;;;;;5026261;28;20406;-72
2022/06/26 09:00:35;;;;;;;1.50;1.40;;;24.40;99.90;;;;;;5025837;28;20217;-71
2022/06/26 09:03:01;;;;;;;1.63;1.10;;;24.10;99.90;;;;;;5026503;28;20190;-70
2022/06/26 09:05:27;;;;;;;1.30;1.20;;;23.90;99.90;;;;;;5026189;28;20175;-70
2022/06/26 09:07:53;;;;;;;1.40;1.30;;;24.00;99.90;;;;;;5025908;28;20887;-72
2022/06/26 09:10:26;;;;;;;1.50;1.40;;;24.20;99.90;;;;;;5024479;28;20183;-71
2022/06/26 09:12:53;;;;;;;1.30;1.20;;;24.30;99.90;;;;;;5026054;28;20426;-71
2022/06/26 09:15:20;;;;;;;2.03;1.30;;;24.50;99.90;;;;;;5025811;28;20848;-71
2022/06/26 09:18:17;;;;;;;1.53;1.43;;;24.60;99.90;;;;;;5025933;28;20410;-72
2022/06/26 09:21:10;;;;;;;1.60;1.50;;;24.60;99.90;;;;;;4994908;28;20481;-73
2022/06/26 09:23:37;;;;;;;0.97;0.90;;;24.90;99.90;;;;;;5008360;28;20588;-71
2022/06/26 09:26:04;;;;;;;1.30;1.20;;;24.80;99.90;;;;;;5024657;28;20902;-72
2022/06/26 09:28:30;;;;;;;1.50;1.40;;;24.90;99.90;;;;;;5026093;28;20429;-71
2022/06/26 09:31:01;;;;;;;1.40;1.30;;;24.80;99.90;;;;;;5025632;28;20852;-73
2022/06/26 09:33:33;;;;;;;1.77;1.30;;;24.90;99.90;;;;;;5025846;28;20779;-71
2022/06/26 09:36:00;;;;;;;1.50;1.40;;;24.70;99.90;;;;;;5025825;28;20410;-71
2022/06/26 09:38:28;;;;;;;1.63;1.37;;;24.80;99.90;;;;;;5024882;28;20509;-71
2022/06/26 09:41:04;;;;;;;2.80;1.50;;;24.90;99.90;;;;;;5025209;28;20504;-72
2022/06/26 09:43:37;;;;;;;3.60;1.33;;;25.20;99.90;;;;;;5025786;28;20408;-70
2022/06/26 09:46:07;;;;;;;1.53;1.33;;;25.20;99.90;;;;;;5024239;28;20420;-71
2022/06/26 09:48:34;;;;;;;1.50;1.40;;;25.10;99.90;;;;;;5025249;28;20650;-71
2022/06/26 09:51:02;;;;;;;1.97;1.33;;;25.10;99.90;;;;;;5025421;28;20844;-70
2022/06/26 09:53:30;;;;;;;1.47;1.37;;;25.40;99.90;;;;;;5025513;28;20434;-71
2022/06/26 09:55:57;;;;;;;1.40;1.30;;;25.70;99.90;;;;;;5024059;28;20426;-70
2022/06/26 09:58:24;;;;;;;1.80;1.33;;;26.30;99.90;;;;;;5024887;28;21032;-73
2022/06/26 10:06:28;;;;;;;1.23;1.00;;;27.00;98.90;;;;;;5023905;28;20456;-71
2022/06/26 10:08:58;;;;;;;1.73;1.30;;;27.20;99.70;;;;;;5024770;28;20456;-71
2022/06/26 10:11:27;;;;;;;1.50;1.40;;;27.30;98.10;;;;;;5023697;28;20503;-70
2022/06/26 10:13:57;;;;;;;1.43;1.33;;;27.20;98.60;;;;;;5024894;28;20428;-72
2022/06/26 10:16:29;;;;;;;2.10;1.23;;;26.90;98.50;;;;;;5024607;28;20467;-71
2022/06/26 10:19:05;;;;;;;1.57;1.43;;;26.90;98.70;;;;;;5024485;28;20548;-73
2022/06/26 10:21:37;;;;;;;2.10;1.27;;;26.80;99.90;;;;;;5023716;28;20799;-71
2022/06/26 10:24:04;;;;;;;1.90;1.37;;;26.90;99.30;;;;;;5024656;28;20596;-72
2022/06/26 10:26:30;;;;;;;1.33;1.23;;;26.80;99.00;;;;;;5024344;28;20418;-73
2022/06/26 10:29:09;;;;;;;2.63;1.60;;;26.80;99.00;;;;;;5024755;28;20504;-71
2022/06/26 10:31:49;;;;;;;1.87;1.20;;;26.90;99.30;;;;;;5024569;28;20937;-72
2022/06/26 10:34:25;;;;;;;1.30;1.20;;;26.80;99.20;;;;;;5024931;28;20410;-72
2022/06/26 10:37:10;;;;;;;1.60;1.50;;;26.60;99.40;;;;;;5024473;28;20483;-71
2022/06/26 10:39:43;;;;;;;1.30;1.10;;;26.30;99.90;;;;;;5024284;28;20821;-72
2022/06/26 10:45:14;;;;;;;1.00;0.90;;;26.60;99.90;;;;;;5025122;28;20397;-72
2022/06/26 10:47:51;;;;;;;1.70;1.40;;;26.50;99.80;;;;;;5024477;28;20414;-71
2022/06/26 10:50:24;;;;;;;1.30;1.20;;;26.80;99.50;;;;;;5024844;28;21561;-71
2022/06/26 10:52:49;;;;;;;1.37;1.27;;;26.90;99.10;;;;;;5024162;28;20930;-72
2022/06/26 10:55:15;;;;;;;1.40;1.30;;;26.80;99.30;;;;;;5024793;28;20439;-72
2022/06/26 10:57:41;;;;;;;1.10;1.00;;;27.10;98.90;;;;;;5024354;28;20194;-71
2022/06/26 11:00:11;;;;;;;2.03;1.23;;;27.40;98.30;;;;;;5024097;28;20221;-73
2022/06/26 11:02:39;;;;;;;1.43;1.20;;;27.60;98.90;;;;;;5024702;28;20200;-72
2022/06/26 11:05:07;;;;;;;1.37;1.20;;;28.10;96.70;;;;;;5024171;28;20447;-72
2022/06/26 11:07:53;;;;;;;1.10;1.00;;;28.10;96.40;;;;;;5006585;28;20406;-72
2022/06/26 11:10:21;;;;;;;1.57;1.37;;;29.10;96.20;;;;;;5024456;28;20409;-72
2022/06/26 11:12:50;;;;;;;1.40;1.30;;;29.60;94.90;;;;;;5024006;28;20438;-72
2022/06/26 11:15:21;;;;;;;1.67;1.20;;;29.70;94.80;;;;;;5024460;28;20424;-72
2022/06/26 11:18:02;;;;;;;1.67;1.40;;;29.60;94.40;;;;;;5023301;28;21326;-72
2022/06/26 11:20:57;;;;;;;1.20;1.00;;;29.30;95.10;;;;;;5023829;28;20721;-71
2022/06/26 11:23:31;;;;;;;1.10;1.00;;;29.20;95.40;;;;;;5023224;28;20414;-73
2022/06/26 11:26:05;;;;;;;1.53;1.43;;;28.80;95.50;;;;;;5023922;28;20424;-71
2022/06/26 11:28:42;;;;;;;1.27;0.90;;;29.00;95.40;;;;;;5023737;28;20412;-72
2022/06/26 11:31:10;;;;;;;1.17;1.00;;;28.40;95.00;;;;;;5024067;28;20434;-71
2022/06/26 11:33:39;;;;;;;1.10;1.00;;;28.20;95.00;;;;;;5023755;28;20442;-72
2022/06/26 11:36:11;;;;;;;1.97;0.90;;;28.40;95.00;;;;;;5023597;28;20422;-70
2022/06/26 11:38:37;;;;;;;1.20;1.10;;;28.90;94.90;;;;;;5023354;28;20434;-72
2022/06/26 11:41:05;;;;;;;1.37;1.27;;;29.20;94.80;;;;;;5023775;28;20433;-72
2022/06/26 11:43:31;;;;;;;1.10;1.00;;;29.20;93.30;;;;;;5023623;28;20414;-70
2022/06/26 11:45:59;;;;;;;1.40;1.30;;;29.90;92.00;;;;;;5023427;28;20467;-71
2022/06/26 11:48:25;;;;;;;1.70;1.10;;;30.30;91.50;;;;;;5023418;28;20178;-71
2022/06/26 11:50:53;;;;;;;1.30;1.00;;;30.50;91.70;;;;;;5027225;28;20438;-71
2022/06/26 11:53:24;;;;;;;1.17;1.07;;;31.00;91.10;;;;;;5027234;28;20483;-72
2022/06/26 11:55:56;;;;;;;1.07;0.97;;;30.60;90.70;;;;;;5027585;28;20986;-72
2022/06/26 11:58:26;;;;;;;3.03;1.53;;;31.00;90.60;;;;;;5027243;28;20413;-71
2022/06/26 12:01:10;;;;;;;3.10;1.20;;;31.30;89.30;;;;;;5027431;28;20560;-72
2022/06/26 12:03:43;;;;;;;1.30;1.20;;;32.30;87.30;;;;;;5027252;28;20409;-70
2022/06/26 12:06:08;;;;;;;1.30;0.97;;;31.00;88.60;;;;;;5027502;28;21672;-72
2022/06/26 12:08:34;;;;;;;1.00;0.90;;;32.00;85.90;;;;;;5027026;28;20418;-72
2022/06/26 12:11:01;;;;;;;1.17;0.90;;;33.30;81.40;;;;;;5027367;28;20206;-71
2022/06/26 12:13:29;;;;;;;1.20;1.10;;;34.00;78.70;;;;;;5026822;28;20921;-71
2022/06/26 12:16:08;;;;;;;2.03;1.33;;;33.70;78.90;;;;;;5026723;28;21036;-72
2022/06/26 12:18:35;;;;;;;1.73;0.90;;;33.10;80.70;;;;;;5026809;28;20406;-71
2022/06/26 12:21:00;;;;;;;2.20;1.30;;;32.50;81.20;;;;;;5026827;28;20458;-72
2022/06/26 12:23:34;;;;;;;1.33;0.97;;;32.70;81.00;;;;;;5026898;28;20414;-71
2022/06/26 12:26:08;;;;;;;1.60;0.80;;;34.50;79.20;;;;;;5027233;28;20214;-72
2022/06/26 12:28:46;;;;;;;1.00;0.80;;;35.50;72.30;;;;;;5026827;28;20418;-70
2022/06/26 12:31:12;;;;;;;1.10;0.93;;;34.80;70.20;;;;;;5026671;28;20503;-71
2022/06/26 12:33:38;;;;;;;1.70;1.03;;;34.00;71.80;;;;;;5026666;28;20839;-72
2022/06/26 12:36:04;;;;;;;1.13;1.03;;;33.90;73.20;;;;;;5026816;28;20417;-72
2022/06/26 12:38:33;;;;;;;1.47;0.97;;;34.50;70.90;;;;;;5021087;28;20207;-71
2022/06/26 12:40:59;;;;;;;1.80;1.10;;;35.60;67.60;;;;;;5026425;28;20495;-71
2022/06/26 12:43:24;;;;;;;0.97;0.87;;;35.20;68.20;;;;;;5026577;28;20984;-72
2022/06/26 12:45:50;;;;;;;1.10;1.00;;;35.00;69.70;;;;;;5026727;28;20194;-72
2022/06/26 12:48:16;;;;;;;1.40;1.00;;;34.80;69.70;;;;;;5026324;28;20175;-73
2022/06/26 12:50:41;;;;;;;0.90;0.73;;;34.10;69.70;;;;;;5026531;28;20185;-72
2022/06/26 12:53:08;;;;;;;0.90;0.70;;;35.60;66.90;;;;;;5026004;28;20267;-72
2022/06/26 12:55:34;;;;;;;1.37;1.00;;;35.30;64.40;;;;;;5026350;28;20175;-71
2022/06/26 12:58:00;;;;;;;1.10;1.00;;;34.70;67.50;;;;;;5025948;28;20406;-73
2022/06/26 13:00:25;;;;;;;1.90;1.20;;;34.60;68.20;;;;;;5025575;28;20207;-73
2022/06/26 13:02:51;;;;;;;1.10;1.00;;;33.60;69.90;;;;;;5025603;28;20231;-73
2022/06/26 13:05:17;;;;;;;1.20;1.00;;;34.20;71.00;;;;;;5025987;28;20256;-74